Time;durP1;ratioP1;P1;durP2;ratioP2;P2;SDS_P1;SDS_P2;PMS_P1;PMS_P2;Temp;Humidity;BMP_temperature;BMP_pressure;BME280_temperature;BME280_humidity;BME280_pressure;Samples;Min_cycle;Max_cycle;Signal;HPM_P1;HPM_P2
2023/05/26 00:00:12;;;;;;;10.18;5.78;;;;;;;15.93;76.18;95280.69;5072646;28;20162;-77
2023/05/26 00:02:39;;;;;;;10.90;4.95;;;;;;;16.31;77.05;95320.41;5071141;28;20078;-77
2023/05/26 00:05:08;;;;;;;9.65;5.57;;;;;;;16.33;77.34;95336.94;5070746;28;20461;-77
2023/05/26 00:07:40;;;;;;;10.95;5.40;;;;;;;16.33;77.61;95331.59;5071951;28;20039;-77
2023/05/26 00:10:10;;;;;;;10.32;5.32;;;;;;;16.29;76.77;95325.28;5071073;28;20035;-76
2023/05/26 00:12:37;;;;;;;9.57;5.72;;;;;;;16.31;76.49;95323.09;5070912;28;20036;-76
2023/05/26 00:15:03;;;;;;;6.85;5.20;;;;;;;16.29;76.52;95326.06;5070461;28;20123;-77
2023/05/26 00:17:29;;;;;;;9.15;5.10;;;;;;;16.02;76.71;95281.50;5070676;28;20032;-77
2023/05/26 00:19:54;;;;;;;9.15;5.85;;;;;;;16.04;76.84;95282.00;5070317;28;20043;-77
2023/05/26 00:22:20;;;;;;;8.18;5.28;;;;;;;15.91;77.37;95314.94;5070466;28;20062;-77
2023/05/26 00:24:46;;;;;;;8.15;5.43;;;;;;;16.08;77.50;95312.41;5071957;28;20134;-77
2023/05/26 00:27:12;;;;;;;7.28;5.00;;;;;;;16.13;77.16;95312.28;5071562;28;20032;-77
2023/05/26 00:29:38;;;;;;;8.55;5.15;;;;;;;16.01;77.17;95290.66;5054117;28;20024;-77
2023/05/26 00:32:04;;;;;;;10.55;5.38;;;;;;;15.86;77.55;95266.94;5071498;28;20028;-77
2023/05/26 00:34:29;;;;;;;8.40;5.35;;;;;;;15.94;77.64;95276.91;5071722;28;20113;-77
2023/05/26 00:36:55;;;;;;;7.32;5.47;;;;;;;15.92;78.14;95270.28;5070390;28;20131;-77
2023/05/26 00:39:20;;;;;;;7.53;5.45;;;;;;;16.23;78.40;95316.59;5069942;28;20032;-77
2023/05/26 00:41:46;;;;;;;9.40;4.90;;;;;;;16.26;77.96;95320.53;5070355;28;20059;-77
2023/05/26 00:44:11;;;;;;;9.27;4.00;;;;;;;16.16;77.98;95292.94;5071475;28;20043;-77
2023/05/26 00:46:37;;;;;;;6.53;4.25;;;;;;;15.91;77.86;95253.44;5070062;28;20025;-77
2023/05/26 00:49:02;;;;;;;9.27;4.50;;;;;;;16.23;77.03;95310.44;5070009;28;20043;-77
2023/05/26 00:51:28;;;;;;;8.70;4.00;;;;;;;16.09;75.80;95294.47;5069807;28;20029;-77
2023/05/26 00:53:54;;;;;;;6.60;4.07;;;;;;;16.19;75.74;95315.59;5070105;28;20036;-77
2023/05/26 00:56:20;;;;;;;8.15;4.20;;;;;;;16.03;76.66;95293.78;5070217;28;20097;-77
2023/05/26 00:58:46;;;;;;;5.25;4.03;;;;;;;16.12;77.52;95315.25;5071053;28;20498;-77
2023/05/26 01:01:13;;;;;;;8.30;4.65;;;;;;;16.03;77.06;95309.84;5071335;28;20094;-77
2023/05/26 01:03:39;;;;;;;7.10;4.07;;;;;;;16.11;76.49;95325.16;5053172;28;20086;-77
2023/05/26 01:06:05;;;;;;;7.15;4.28;;;;;;;16.09;76.27;95326.56;5069731;28;20499;-77
2023/05/26 01:08:32;;;;;;;9.35;4.28;;;;;;;16.08;76.09;95331.13;5069733;28;20055;-77
2023/05/26 01:11:06;;;;;;;9.40;4.80;;;;;;;16.06;77.09;95330.63;5070510;28;20036;-77
2023/05/26 01:13:41;;;;;;;13.68;5.28;;;;;;;15.60;76.73;95265.94;5069844;28;20029;-77
2023/05/26 01:16:11;;;;;;;6.35;4.65;;;;;;;16.06;76.99;95335.19;5069979;28;20164;-77
2023/05/26 01:18:58;;;;;;;7.93;4.88;;;;;;;16.07;76.68;95328.75;5071639;28;20092;-77
2023/05/26 01:21:27;;;;;;;10.27;5.57;;;;;;;15.91;76.42;95306.13;5069820;28;20037;-77
2023/05/26 01:23:59;;;;;;;19.40;5.20;;;;;;;16.01;76.28;95333.44;5070951;28;20498;-77
2023/05/26 01:26:59;;;;;;;11.02;4.75;;;;;;;15.64;75.83;95282.97;5069754;28;20490;-77
2023/05/26 01:29:29;;;;;;;9.60;4.70;;;;;;;15.66;75.62;95289.56;5070227;28;20037;-77
2023/05/26 01:32:06;;;;;;;9.85;4.50;;;;;;;15.64;75.82;95291.75;5070025;28;20029;-77
2023/05/26 01:34:32;;;;;;;8.90;4.57;;;;;;;15.59;76.05;95289.22;5071349;28;20028;-77
2023/05/26 01:36:57;;;;;;;8.63;5.07;;;;;;;15.82;77.41;95330.13;5069769;28;20044;-77
2023/05/26 01:39:23;;;;;;;10.15;4.90;;;;;;;15.71;76.67;95312.75;5069324;28;20115;-77
2023/05/26 01:42:09;;;;;;;18.80;5.65;;;;;;;15.49;77.69;95272.56;5070819;28;20499;-77
2023/05/26 01:44:44;;;;;;;12.23;4.45;;;;;;;15.81;76.93;95321.31;5069875;28;20096;-77
2023/05/26 01:47:13;;;;;;;11.68;5.00;;;;;;;15.39;76.30;95274.41;5069581;28;20037;-77
2023/05/26 01:49:42;;;;;;;10.70;4.82;;;;;;;15.51;76.79;95289.88;5071066;28;20094;-76
2023/05/26 01:52:12;;;;;;;8.35;4.35;;;;;;;15.73;76.25;95331.94;5070956;28;20039;-76
2023/05/26 01:54:45;;;;;;;12.65;5.30;;;;;;;15.32;75.35;95306.09;5070580;28;20460;-77
2023/05/26 01:57:12;;;;;;;17.85;5.65;;;;;;;15.55;76.50;95331.00;5069610;28;20032;-77
2023/05/26 01:59:38;;;;;;;7.70;5.47;;;;;;;15.25;76.37;95286.22;5070488;28;20039;-77
2023/05/26 02:02:03;;;;;;;8.43;4.90;;;;;;;15.55;76.99;95325.66;5069448;28;20032;-79
2023/05/26 02:04:29;;;;;;;12.70;5.00;;;;;;;15.37;77.40;95308.63;5070390;28;20037;-77
2023/05/26 02:06:55;;;;;;;11.93;5.20;;;;;;;15.55;76.35;95333.69;5069674;28;20031;-77
2023/05/26 02:09:20;;;;;;;9.95;5.47;;;;;;;15.56;76.49;95334.47;5071502;28;20115;-77
2023/05/26 02:11:47;;;;;;;12.23;5.28;;;;;;;15.55;77.09;95328.34;5074549;28;20067;-76
2023/05/26 02:14:12;;;;;;;9.20;4.53;;;;;;;15.38;77.14;95304.09;5073275;28;20029;-77
2023/05/26 02:16:39;;;;;;;16.67;6.05;;;;;;;15.33;77.72;95296.19;5074107;28;20564;-77
2023/05/26 02:19:07;;;;;;;18.63;6.10;;;;;;;15.28;77.23;95286.38;5073162;28;20064;-77
2023/05/26 02:21:33;;;;;;;15.82;6.03;;;;;;;15.45;77.76;95317.81;5074498;28;20116;-77
2023/05/26 02:23:58;;;;;;;18.55;6.47;;;;;;;15.47;77.75;95310.31;5073944;28;20049;-77
2023/05/26 02:26:23;;;;;;;11.15;5.25;;;;;;;15.47;77.30;95314.84;5074268;28;20040;-77
2023/05/26 02:28:55;;;;;;;12.82;5.53;;;;;;;15.30;76.89;95286.88;5074175;28;20040;-77
2023/05/26 02:31:20;;;;;;;17.90;6.18;;;;;;;15.58;77.06;95334.94;5072519;28;20039;-77
2023/05/26 02:33:46;;;;;;;18.83;6.28;;;;;;;15.55;76.63;95339.03;5074092;28;20028;-77
2023/05/26 02:36:13;;;;;;;9.90;5.32;;;;;;;15.18;76.56;95278.56;5073627;28;20029;-77
2023/05/26 02:38:39;;;;;;;12.13;5.18;;;;;;;15.29;76.07;95300.53;5072704;28;20039;-77
2023/05/26 02:41:07;;;;;;;8.27;5.13;;;;;;;15.14;75.89;95288.28;5072205;28;20029;-77
2023/05/26 02:43:33;;;;;;;20.60;6.25;;;;;;;15.41;75.50;95322.97;5072748;28;20036;-77
2023/05/26 02:45:59;;;;;;;13.02;5.35;;;;;;;14.56;76.33;95203.50;5055718;28;20037;-77
2023/05/26 02:48:24;;;;;;;23.48;5.75;;;;;;;15.23;76.84;95313.22;5072350;28;20550;-77
2023/05/26 02:50:50;;;;;;;12.90;5.25;;;;;;;15.21;76.48;95310.03;5074539;28;20064;-78
2023/05/26 02:53:15;;;;;;;7.22;5.18;;;;;;;15.17;77.50;95308.28;5073930;28;20144;-78
2023/05/26 02:55:44;;;;;;;10.38;5.53;;;;;;;15.33;76.44;95330.94;5073684;28;20041;-78
2023/05/26 02:58:11;;;;;;;11.38;5.28;;;;;;;15.15;76.78;95310.44;5072225;28;20025;-78
2023/05/26 03:00:36;;;;;;;7.53;4.93;;;;;;;15.19;77.72;95320.22;5073474;28;20040;-78
2023/05/26 03:03:02;;;;;;;6.82;5.15;;;;;;;15.24;77.52;95319.34;5072215;28;20471;-78
2023/05/26 03:05:27;;;;;;;12.82;4.47;;;;;;;14.78;77.02;95253.50;5071717;28;20040;-78
2023/05/26 03:07:52;;;;;;;15.85;5.53;;;;;;;15.25;77.45;95332.41;5071788;28;20094;-77
2023/05/26 03:10:18;;;;;;;8.52;5.40;;;;;;;15.40;77.91;95353.47;5071733;28;20465;-78
2023/05/26 03:12:44;;;;;;;17.48;6.72;;;;;;;15.17;77.05;95327.78;5072162;28;20494;-78
2023/05/26 03:15:11;;;;;;;12.00;5.88;;;;;;;14.92;77.10;95289.00;5071868;28;20046;-78
2023/05/26 03:17:37;;;;;;;11.55;5.80;;;;;;;15.15;76.82;95321.13;5071963;28;20036;-77
2023/05/26 03:20:04;;;;;;;8.75;5.75;;;;;;;15.23;77.49;95337.25;5073416;28;20493;-77
2023/05/26 03:22:29;;;;;;;11.13;5.72;;;;;;;15.18;78.03;95333.91;5071404;28;20051;-78
2023/05/26 03:24:55;;;;;;;14.70;6.22;;;;;;;15.29;77.95;95348.63;5071762;28;20040;-77
2023/05/26 03:27:22;;;;;;;15.38;6.00;;;;;;;15.44;78.13;95367.81;5073589;28;20111;-78
2023/05/26 03:29:48;;;;;;;23.02;8.60;;;;;;;15.21;78.01;95336.75;5071643;28;20060;-78
2023/05/26 03:32:13;;;;;;;12.73;6.13;;;;;;;15.45;77.96;95377.41;5072442;28;20115;-78
2023/05/26 03:34:39;;;;;;;19.83;7.25;;;;;;;15.38;77.76;95361.00;5055049;28;20501;-78
2023/05/26 03:37:07;;;;;;;14.63;7.10;;;;;;;15.48;77.92;95378.72;5072619;28;20457;-78
2023/05/26 03:39:35;;;;;;;12.60;6.40;;;;;;;15.07;77.63;95330.63;5072938;28;20410;-78
2023/05/26 03:42:01;;;;;;;17.10;6.32;;;;;;;15.12;77.81;95345.75;5072749;28;20036;-78
2023/05/26 03:44:27;;;;;;;11.45;6.07;;;;;;;15.22;77.58;95340.22;5072414;28;20037;-78
2023/05/26 03:46:52;;;;;;;21.77;6.22;;;;;;;15.37;76.72;95374.66;5072935;28;20105;-78
2023/05/26 03:49:18;;;;;;;12.75;6.25;;;;;;;15.40;76.38;95368.72;5070976;28;20579;-78
2023/05/26 03:51:44;;;;;;;14.10;7.40;;;;;;;15.13;77.17;95323.31;5072439;28;20056;-78
2023/05/26 03:54:09;;;;;;;17.23;7.28;;;;;;;15.25;77.66;95345.78;5070990;28;20067;-78
2023/05/26 03:56:35;;;;;;;12.55;6.82;;;;;;;15.38;78.03;95358.31;5071126;28;20032;-78
2023/05/26 03:59:01;;;;;;;24.75;8.25;;;;;;;15.31;77.84;95347.25;5071034;28;20044;-78
2023/05/26 04:01:27;;;;;;;12.82;7.57;;;;;;;15.31;77.62;95349.91;5066682;28;20037;-78
2023/05/26 04:03:52;;;;;;;15.48;6.97;;;;;;;15.11;76.86;95336.16;5060127;28;20035;-78
2023/05/26 04:06:17;;;;;;;20.02;8.10;;;;;;;14.79;77.74;95319.19;5063985;28;20051;-78
2023/05/26 04:08:43;;;;;;;19.92;7.25;;;;;;;15.25;77.39;95364.47;5060497;28;20067;-78
2023/05/26 04:11:09;;;;;;;16.25;6.90;;;;;;;15.22;77.41;95348.25;5067291;28;20513;-78
2023/05/26 04:13:40;;;;;;;23.15;8.95;;;;;;;15.38;77.67;95358.31;5060170;28;20182;-78
2023/05/26 04:16:06;;;;;;;16.48;7.72;;;;;;;15.19;78.31;95335.47;5052514;28;20041;-77
2023/05/26 04:18:33;;;;;;;17.42;8.15;;;;;;;15.04;77.30;95321.34;5052847;28;20148;-78
2023/05/26 04:20:59;;;;;;;14.00;8.88;;;;;;;15.09;78.21;95357.06;5064033;28;20045;-78
2023/05/26 04:23:25;;;;;;;20.02;8.20;;;;;;;14.70;79.67;95347.63;5069674;28;20908;-78
2023/05/26 04:25:50;;;;;;;14.32;7.32;;;;;;;14.82;79.00;95358.63;5053481;28;20032;-79
2023/05/26 04:28:16;;;;;;;26.58;9.35;;;;;;;14.46;80.35;95318.44;5053328;28;20036;-78
2023/05/26 04:30:42;;;;;;;24.45;9.82;;;;;;;15.04;80.00;95369.41;5049753;28;20044;-78
2023/05/26 04:33:09;;;;;;;18.10;8.10;;;;;;;15.13;79.70;95350.81;5053041;28;20426;-78
2023/05/26 04:35:35;;;;;;;14.40;8.85;;;;;;;14.86;80.01;95300.88;5054434;28;21645;-78
2023/05/26 04:38:04;;;;;;;19.98;9.85;;;;;;;15.13;80.32;95353.47;5064569;28;20047;-79
2023/05/26 04:40:31;;;;;;;19.27;9.43;;;;;;;15.33;79.82;95358.41;5062534;28;20495;-78
2023/05/26 04:42:58;;;;;;;27.48;9.88;;;;;;;15.28;79.86;95341.69;5059451;28;20040;-78
2023/05/26 04:45:23;;;;;;;23.50;9.35;;;;;;;15.64;79.82;95371.97;5053524;28;20067;-78
2023/05/26 04:47:49;;;;;;;16.70;8.65;;;;;;;15.60;79.34;95351.47;5056644;28;20194;-78
2023/05/26 04:50:16;;;;;;;21.27;9.25;;;;;;;15.57;79.43;95341.38;5053612;28;20399;-78
2023/05/26 04:52:42;;;;;;;19.10;9.43;;;;;;;15.73;79.33;95372.84;5054915;28;20133;-79
2023/05/26 04:55:08;;;;;;;20.00;10.50;;;;;;;15.54;79.24;95318.72;5057664;28;20530;-78
2023/05/26 04:57:34;;;;;;;24.67;10.95;;;;;;;15.73;79.01;95361.34;5056662;28;20478;-78
2023/05/26 04:59:59;;;;;;;18.42;9.73;;;;;;;15.54;78.85;95353.47;5060492;28;20050;-79
2023/05/26 05:02:25;;;;;;;17.48;9.93;;;;;;;15.65;78.51;95335.31;5057304;28;20033;-78
2023/05/26 05:04:51;;;;;;;24.90;9.68;;;;;;;15.56;78.34;95326.47;5060993;28;20041;-80
2023/05/26 05:07:16;;;;;;;23.55;10.82;;;;;;;15.16;79.22;95278.09;5058699;28;20046;-79
2023/05/26 05:09:42;;;;;;;28.05;10.82;;;;;;;15.60;78.80;95325.53;5058336;28;20375;-79
2023/05/26 05:12:09;;;;;;;18.33;9.98;;;;;;;15.81;78.44;95358.75;5050806;28;20116;-80
2023/05/26 05:14:35;;;;;;;20.65;11.38;;;;;;;15.69;78.70;95336.31;5058867;28;20923;-85
2023/05/26 05:17:00;;;;;;;29.63;10.98;;;;;;;15.76;78.46;95321.44;5056107;28;20124;-79
2023/05/26 05:19:26;;;;;;;25.95;11.50;;;;;;;16.10;78.77;95355.69;5057963;28;20093;-80
2023/05/26 05:21:52;;;;;;;24.20;12.68;;;;;;;15.94;78.02;95325.06;5053740;28;20036;-79
2023/05/26 05:24:17;;;;;;;29.15;11.23;;;;;;;16.00;77.94;95344.44;5054821;28;20087;-79
2023/05/26 05:26:43;;;;;;;21.60;11.48;;;;;;;16.11;78.46;95341.22;5053268;28;20059;-79
2023/05/26 05:29:08;;;;;;;27.40;12.25;;;;;;;15.81;78.48;95297.25;5052948;28;20057;-77
2023/05/26 05:31:34;;;;;;;26.25;11.43;;;;;;;16.13;78.29;95327.53;5055577;28;20063;-77
2023/05/26 05:33:59;;;;;;;24.52;11.68;;;;;;;15.86;78.15;95272.28;5049915;28;20241;-77
2023/05/26 05:36:25;;;;;;;21.60;11.35;;;;;;;16.47;78.78;95364.44;5052876;28;20404;-77
2023/05/26 05:38:51;;;;;;;25.52;11.68;;;;;;;16.57;78.22;95364.19;5056351;28;20079;-78
2023/05/26 05:41:17;;;;;;;22.88;11.57;;;;;;;16.65;77.79;95362.69;5054163;28;20028;-78
2023/05/26 05:43:42;;;;;;;25.13;12.65;;;;;;;16.43;77.86;95331.34;5057059;28;20032;-77
2023/05/26 05:46:08;;;;;;;20.17;13.98;;;;;;;16.71;77.97;95364.91;5062202;28;20036;-78
2023/05/26 05:48:34;;;;;;;27.05;15.60;;;;;;;16.61;78.18;95348.34;5061301;28;20093;-78
2023/05/26 05:51:00;;;;;;;26.65;15.80;;;;;;;16.61;78.08;95343.78;5061631;28;20032;-78
2023/05/26 05:53:26;;;;;;;25.98;15.57;;;;;;;16.87;77.84;95381.38;5055265;28;20492;-76
2023/05/26 05:55:51;;;;;;;22.13;15.30;;;;;;;16.79;78.10;95368.72;5060148;28;20066;-78
2023/05/26 05:58:17;;;;;;;25.58;15.23;;;;;;;16.82;77.86;95360.88;5066570;28;20123;-78
2023/05/26 06:00:42;;;;;;;20.55;11.23;;;;;;;16.43;76.64;95304.56;5047757;28;20118;-78
2023/05/26 06:03:08;;;;;;;17.20;10.00;;;;;;;16.75;74.74;95363.22;5053708;28;20028;-78
2023/05/26 06:05:34;;;;;;;31.48;9.85;;;;;;;16.62;75.08;95366.78;5047139;28;20037;-78
2023/05/26 06:07:59;;;;;;;23.13;10.50;;;;;;;15.78;75.71;95265.78;5049086;28;20688;-78
2023/05/26 06:10:24;;;;;;;18.10;11.02;;;;;;;16.51;75.44;95368.88;5045411;28;20043;-78
2023/05/26 06:12:50;;;;;;;23.80;10.07;;;;;;;16.42;75.53;95341.25;5051420;28;20024;-80
2023/05/26 06:15:17;;;;;;;19.90;9.43;;;;;;;16.42;74.57;95349.28;5054614;28;20029;-79
2023/05/26 06:17:43;;;;;;;14.20;8.52;;;;;;;16.50;73.86;95355.78;5056570;28;20037;-78
2023/05/26 06:20:08;;;;;;;15.25;9.70;;;;;;;16.38;74.20;95339.50;5061302;28;20024;-79
2023/05/26 06:22:36;;;;;;;22.48;10.43;;;;;;;16.58;73.96;95347.03;5056539;28;20078;-79
2023/05/26 06:25:03;;;;;;;20.30;11.23;;;;;;;16.70;75.13;95370.59;5058382;28;20120;-79
2023/05/26 06:27:28;;;;;;;15.38;9.55;;;;;;;16.85;74.85;95384.38;5056963;28;20040;-80
2023/05/26 06:29:54;;;;;;;22.80;10.68;;;;;;;16.77;74.17;95363.72;5057815;28;20047;-79
2023/05/26 06:32:19;;;;;;;15.23;10.93;;;;;;;16.73;75.31;95343.19;5054903;28;20117;-78
2023/05/26 06:34:45;;;;;;;26.25;11.02;;;;;;;16.85;74.28;95360.28;5053733;28;20032;-79
2023/05/26 06:37:10;;;;;;;21.83;12.50;;;;;;;16.95;74.55;95364.56;5052901;28;20826;-79
2023/05/26 06:39:36;;;;;;;17.70;12.10;;;;;;;16.97;74.34;95357.81;5055690;28;20048;-79
2023/05/26 06:42:01;;;;;;;17.65;11.38;;;;;;;16.88;73.78;95361.53;5050914;28;20724;-80
2023/05/26 06:44:27;;;;;;;20.42;11.55;;;;;;;16.97;74.03;95357.00;5058378;28;20063;-79
2023/05/26 06:46:52;;;;;;;21.80;13.23;;;;;;;17.14;74.22;95362.44;5060211;28;20524;-79
2023/05/26 06:49:18;;;;;;;35.33;13.55;;;;;;;17.00;74.66;95343.00;5056581;28;20470;-79
2023/05/26 06:51:43;;;;;;;24.73;12.52;;;;;;;17.18;74.20;95355.34;5055073;28;20135;-81
2023/05/26 06:54:09;;;;;;;22.33;12.20;;;;;;;17.18;73.16;95339.28;5039634;28;20201;-81
2023/05/26 06:56:35;;;;;;;21.00;12.35;;;;;;;17.44;73.29;95370.72;5054097;28;20037;-82
2023/05/26 06:59:00;;;;;;;21.90;14.13;;;;;;;17.42;73.26;95371.03;5057275;28;20127;-82
2023/05/26 07:01:25;;;;;;;30.98;13.27;;;;;;;17.37;73.79;95373.88;5057106;28;20463;-80
2023/05/26 07:03:51;;;;;;;23.90;11.52;;;;;;;17.32;73.19;95353.34;5064448;28;20162;-85
2023/05/26 07:06:16;;;;;;;20.58;12.65;;;;;;;16.90;72.56;95279.78;5064974;28;20046;-84
2023/05/26 07:08:42;;;;;;;21.35;13.07;;;;;;;16.83;74.72;95302.75;5066456;28;20197;-82
2023/05/26 07:11:09;;;;;;;20.92;12.88;;;;;;;16.91;75.21;95324.22;5055082;28;20512;-80
2023/05/26 07:13:34;;;;;;;30.08;11.77;;;;;;;17.17;73.84;95359.13;5044242;28;20218;-80
2023/05/26 07:16:00;;;;;;;20.65;12.30;;;;;;;17.01;74.01;95311.66;5050613;28;20483;-79
2023/05/26 07:18:25;;;;;;;21.80;12.30;;;;;;;17.42;74.00;95362.19;5056290;28;20041;-79
2023/05/26 07:20:51;;;;;;;25.27;12.05;;;;;;;17.37;74.19;95344.38;5055013;28;20487;-79
2023/05/26 07:23:16;;;;;;;35.53;14.30;;;;;;;17.36;74.14;95345.47;5055414;28;20148;-79
2023/05/26 07:25:41;;;;;;;28.63;12.10;;;;;;;17.10;72.54;95286.44;5058429;28;20032;-79
2023/05/26 07:28:07;;;;;;;22.58;12.88;;;;;;;17.74;72.72;95356.47;5054117;28;20164;-79
2023/05/26 07:30:32;;;;;;;24.70;11.35;;;;;;;17.04;71.53;95274.28;5054802;28;20104;-80
2023/05/26 07:32:57;;;;;;;17.90;12.85;;;;;;;17.93;72.10;95380.28;5062522;28;20123;-79
2023/05/26 07:35:23;;;;;;;27.80;13.48;;;;;;;17.68;72.19;95358.50;5064689;28;20036;-79
2023/05/26 07:37:49;;;;;;;21.45;14.30;;;;;;;17.76;71.93;95321.28;5061010;28;20033;-80
2023/05/26 07:40:14;;;;;;;30.10;15.02;;;;;;;18.15;72.82;95365.97;5056203;28;20037;-79
2023/05/26 07:42:41;;;;;;;22.10;14.93;;;;;;;18.05;72.29;95359.81;5052247;28;20131;-78
2023/05/26 07:45:07;;;;;;;27.10;15.70;;;;;;;18.22;72.36;95369.75;5058066;28;20045;-79
2023/05/26 07:47:34;;;;;;;27.05;14.93;;;;;;;18.24;72.23;95350.63;5057349;28;20103;-79
2023/05/26 07:50:00;;;;;;;24.85;14.95;;;;;;;17.66;71.54;95240.03;5060916;28;21009;-79
2023/05/26 07:52:25;;;;;;;26.15;15.02;;;;;;;18.25;71.45;95303.88;5058332;28;20039;-81
2023/05/26 07:54:51;;;;;;;23.88;14.30;;;;;;;18.28;69.74;95316.69;5056582;28;20029;-81
2023/05/26 07:57:16;;;;;;;24.13;14.30;;;;;;;18.57;69.65;95362.47;5061468;28;20032;-83
2023/05/26 07:59:42;;;;;;;26.50;11.93;;;;;;;18.53;69.19;95358.81;5058763;28;20036;-81
2023/05/26 08:02:07;;;;;;;22.95;11.90;;;;;;;18.02;68.75;95282.59;5055398;28;20585;-78
2023/05/26 08:04:32;;;;;;;26.23;13.57;;;;;;;18.33;69.81;95303.88;5047073;28;20127;-78
2023/05/26 08:06:58;;;;;;;32.58;15.50;;;;;;;18.62;69.57;95335.41;5051773;28;20050;-79
2023/05/26 08:09:23;;;;;;;26.23;14.93;;;;;;;18.73;69.98;95323.22;5049019;28;20032;-79
2023/05/26 08:11:49;;;;;;;27.55;15.27;;;;;;;18.72;70.26;95307.44;5052717;28;20039;-79
2023/05/26 08:14:15;;;;;;;25.20;15.20;;;;;;;19.10;70.04;95337.00;5055663;28;20117;-79
2023/05/26 08:16:41;;;;;;;26.83;14.27;;;;;;;19.06;69.61;95315.38;5056270;28;20036;-79
2023/05/26 08:19:07;;;;;;;24.88;13.52;;;;;;;19.00;68.40;95319.31;5050087;28;20428;-79
2023/05/26 08:21:33;;;;;;;25.98;14.55;;;;;;;19.16;68.35;95325.75;5054697;28;20095;-79
2023/05/26 08:23:58;;;;;;;23.60;14.00;;;;;;;19.35;68.42;95332.63;5056789;28;20052;-79
2023/05/26 08:26:25;;;;;;;21.85;12.75;;;;;;;19.37;68.72;95316.94;5059166;28;20050;-79
2023/05/26 08:28:50;;;;;;;23.17;13.43;;;;;;;19.38;70.97;95318.50;5055362;28;20039;-79
2023/05/26 08:31:16;;;;;;;18.55;12.55;;;;;;;19.47;69.92;95332.72;5044080;28;20040;-79
2023/05/26 08:33:41;;;;;;;14.43;11.57;;;;;;;19.34;69.17;95294.19;5050469;28;20078;-79
2023/05/26 08:36:07;;;;;;;22.92;12.05;;;;;;;19.59;69.00;95322.84;5057970;28;20040;-79
2023/05/26 08:38:32;;;;;;;20.40;13.00;;;;;;;19.62;69.34;95316.81;5046544;28;20044;-79
2023/05/26 08:41:00;;;;;;;18.23;11.95;;;;;;;19.68;69.61;95330.09;5043003;28;20036;-80
2023/05/26 08:43:34;;;;;;;27.35;12.82;;;;;;;19.83;69.39;95330.28;5049658;28;20406;-80
2023/05/26 08:46:03;;;;;;;20.48;11.13;;;;;;;19.83;68.89;95335.66;5056326;28;20376;-80
2023/05/26 08:48:28;;;;;;;19.85;11.02;;;;;;;19.69;68.96;95343.19;5061366;28;20079;-80
2023/05/26 08:50:56;;;;;;;18.15;10.63;;;;;;;19.57;68.28;95295.47;5055663;28;20250;-80
2023/05/26 08:53:24;;;;;;;20.73;10.90;;;;;;;19.74;67.90;95348.38;5053558;28;20101;-81
2023/05/26 08:55:50;;;;;;;22.30;10.15;;;;;;;19.53;67.57;95299.91;5046072;28;20051;-80
2023/05/26 08:58:16;;;;;;;13.02;10.38;;;;;;;19.72;67.47;95306.78;5055195;28;20033;-80
2023/05/26 09:00:45;;;;;;;23.58;10.18;;;;;;;20.02;67.33;95344.06;5057852;28;20050;-81
2023/05/26 09:03:10;;;;;;;20.38;9.93;;;;;;;19.79;68.60;95304.34;5054336;28;20066;-80
2023/05/26 09:05:36;;;;;;;28.00;10.00;;;;;;;19.96;68.52;95307.69;5054500;28;20708;-80
2023/05/26 09:08:01;;;;;;;18.90;10.75;;;;;;;20.09;69.66;95332.75;5044506;28;20072;-80
2023/05/26 09:10:31;;;;;;;15.75;12.10;;;;;;;20.22;69.91;95337.06;5049998;28;20625;-83
2023/05/26 09:13:05;;;;;;;25.42;13.55;;;;;;;19.89;71.54;95288.59;5053677;28;20024;-82
2023/05/26 09:15:30;;;;;;;24.27;13.63;;;;;;;20.07;71.43;95283.84;5056566;28;20038;-83
2023/05/26 09:18:08;;;;;;;42.20;28.25;;;;;;;19.50;70.38;95189.53;5057933;28;20042;-83
2023/05/26 09:20:38;;;;;;;32.53;21.73;;;;;;;20.09;70.56;95238.53;5058485;28;20056;-82
2023/05/26 09:23:04;;;;;;;24.17;14.63;;;;;;;19.78;68.56;95211.28;5054348;28;20508;-84
2023/05/26 09:25:38;;;;;;;21.02;12.18;;;;;;;20.59;68.93;95299.53;5055106;28;20054;-81
2023/05/26 09:28:06;;;;;;;17.27;10.55;;;;;;;20.70;68.19;95295.28;5057071;28;20434;-82
2023/05/26 09:30:39;;;;;;;20.55;11.48;;;;;;;20.90;66.06;95315.19;5057066;28;20056;-82
2023/05/26 09:33:07;;;;;;;27.48;10.30;;;;;;;21.07;65.34;95314.97;5058755;28;20069;-83
2023/05/26 09:35:42;;;;;;;16.45;9.15;;;;;;;20.84;62.88;95268.78;5053118;28;20047;-80
2023/05/26 09:38:12;;;;;;;11.82;7.90;;;;;;;21.07;61.70;95286.09;5059992;28;20036;-89
2023/05/26 09:40:44;;;;;;;16.83;9.13;;;;;;;21.25;62.78;95315.56;5063769;28;20028;-82
2023/05/26 09:43:10;;;;;;;21.83;8.90;;;;;;;20.68;61.86;95255.19;5059940;28;20040;-81
2023/05/26 09:45:37;;;;;;;19.88;9.43;;;;;;;21.04;62.56;95327.22;5061963;28;20403;-82
2023/05/26 09:48:05;;;;;;;24.17;7.78;;;;;;;20.86;62.82;95300.78;5061931;28;20038;-81
2023/05/26 09:50:35;;;;;;;14.32;8.18;;;;;;;21.05;62.49;95298.34;5039989;28;20036;-83
2023/05/26 09:53:03;;;;;;;15.85;8.85;;;;;;;21.17;62.10;95311.88;5069570;28;20036;-82
2023/05/26 09:55:30;;;;;;;20.10;8.77;;;;;;;21.32;62.63;95329.28;5061487;28;20135;-85
2023/05/26 09:58:09;;;;;;;19.92;8.85;;;;;;;21.28;62.69;95291.41;5061276;28;20060;-86
2023/05/26 10:00:36;;;;;;;20.10;9.82;;;;;;;20.42;63.34;95219.69;5057118;28;20040;-83
2023/05/26 10:03:06;;;;;;;17.52;10.23;;;;;;;20.79;64.28;95339.09;5062892;28;20036;-83
2023/05/26 10:05:47;;;;;;;15.25;9.48;;;;;;;20.78;63.66;95334.81;5061038;28;20029;-82
2023/05/26 10:08:26;;;;;;;21.92;11.23;;;;;;;20.33;67.51;95338.28;5052133;28;20496;-86
2023/05/26 10:10:52;;;;;;;18.17;10.32;;;;;;;19.36;68.35;95253.53;5055050;28;20743;-86
2023/05/26 10:13:18;;;;;;;16.50;7.85;;;;;;;20.00;66.66;95332.03;5057527;28;20115;-87
2023/05/26 10:15:45;;;;;;;9.13;6.63;;;;;;;19.72;66.10;95298.69;5062351;28;20172;-81
2023/05/26 10:18:11;;;;;;;17.85;5.32;;;;;;;19.99;62.39;95338.53;5054253;28;20136;-81
2023/05/26 10:20:36;;;;;;;12.55;5.18;;;;;;;20.07;60.84;95336.88;5052743;28;20668;-80
2023/05/26 10:23:09;;;;;;;9.25;4.50;;;;;;;20.02;60.36;95333.28;5059101;28;20418;-80
2023/05/26 10:26:07;;;;;;;17.48;4.75;;;;;;;19.95;58.42;95314.19;5052791;28;20976;-80
2023/05/26 10:28:37;;;;;;;13.77;4.93;;;;;;;19.91;58.16;95289.03;5048514;28;20040;-80
2023/05/26 10:31:03;;;;;;;11.57;3.95;;;;;;;20.20;56.60;95311.63;5054269;28;20551;-81
2023/05/26 10:33:38;;;;;;;7.28;4.32;;;;;;;20.51;57.49;95325.44;5045351;28;20040;-80
2023/05/26 10:36:07;;;;;;;12.35;4.93;;;;;;;20.74;57.75;95326.63;5054712;28;20040;-80
2023/05/26 10:38:37;;;;;;;7.88;4.80;;;;;;;20.75;57.77;95290.44;5059114;28;20028;-80
2023/05/26 10:41:08;;;;;;;19.40;5.13;;;;;;;20.56;56.90;95255.19;5060636;28;20036;-80
2023/05/26 10:43:33;;;;;;;8.80;4.95;;;;;;;20.56;56.21;95249.00;5053553;28;20036;-80
2023/05/26 10:46:01;;;;;;;16.67;5.50;;;;;;;20.87;55.69;95294.28;5053468;28;20091;-80
2023/05/26 10:48:39;;;;;;;21.05;5.60;;;;;;;20.99;56.91;95288.91;5054347;28;20039;-82
2023/05/26 10:51:09;;;;;;;18.20;6.32;;;;;;;21.09;58.37;95307.34;5052198;28;20036;-82
2023/05/26 10:53:42;;;;;;;22.58;7.18;;;;;;;20.96;63.15;95297.66;5052956;28;20139;-80
2023/05/26 10:56:12;;;;;;;17.10;7.93;;;;;;;20.58;64.60;95268.31;5053683;28;20040;-80
2023/05/26 10:58:47;;;;;;;9.88;6.00;;;;;;;20.34;66.36;95286.00;5054986;28;20096;-81
2023/05/26 11:01:20;;;;;;;6.22;4.00;;;;;;;19.85;65.52;95250.00;5062554;28;20051;-80
2023/05/26 11:03:56;;;;;;;7.45;3.85;;;;;;;19.48;63.04;95242.84;5061540;28;20729;-80
2023/05/26 11:06:54;;;;;;;6.93;4.05;;;;;;;19.46;66.96;95290.75;5053447;28;20081;-80
2023/05/26 11:09:25;;;;;;;9.63;4.75;;;;;;;19.58;67.53;95299.75;5045944;28;20041;-80
2023/05/26 11:11:53;;;;;;;7.85;3.90;;;;;;;19.39;65.60;95301.25;5044093;28;20046;-80
2023/05/26 11:14:33;;;;;;;9.93;4.63;;;;;;;19.22;65.34;95296.78;5053386;28;21063;-80
2023/05/26 11:17:04;;;;;;;4.60;3.03;;;;;;;19.24;63.11;95291.84;5060156;28;20028;-80
2023/05/26 11:19:34;;;;;;;5.20;3.22;;;;;;;19.07;60.92;95265.09;5061343;28;20321;-79
2023/05/26 11:22:05;;;;;;;6.47;4.27;;;;;;;19.14;65.65;95241.16;5057003;28;20127;-79
2023/05/26 11:24:31;;;;;;;10.80;4.35;;;;;;;19.39;63.44;95295.88;5049385;28;20313;-79